Time;durP1;ratioP1;P1;durP2;ratioP2;P2;SDS_P1;SDS_P2;PMS_P1;PMS_P2;Temp;Humidity;BMP_temperature;BMP_pressure;BME280_temperature;BME280_humidity;BME280_pressure;Samples;Min_cycle;Max_cycle;Signal;HPM_P1;HPM_P2
2022/06/10 00:01:45;;;;;;;;;;;22.00;59.50;;;;;;5030812;28;19933;-69
2022/06/10 00:04:10;;;;;;;;;;;22.00;59.50;;;;;;5026128;28;20017;-69
2022/06/10 00:06:36;;;;;;;;;;;22.00;59.50;;;;;;5026364;28;19992;-69
2022/06/10 00:09:02;;;;;;;;;;;22.00;59.70;;;;;;5029777;28;20298;-69
2022/06/10 00:11:27;;;;;;;;;;;22.00;59.50;;;;;;5028189;28;19913;-69
2022/06/10 00:13:53;;;;;;;;;;;22.00;59.50;;;;;;5027422;28;19920;-69
2022/06/10 00:16:18;;;;;;;;;;;22.00;59.50;;;;;;5028352;28;19935;-69
2022/06/10 00:18:44;;;;;;;;;;;22.00;59.60;;;;;;5009217;28;19913;-68
2022/06/10 00:21:10;;;;;;;;;;;22.00;59.50;;;;;;5027990;28;19913;-70
2022/06/10 00:23:35;;;;;;;;;;;22.00;59.50;;;;;;5028620;28;19920;-70
2022/06/10 00:26:01;;;;;;;;;;;22.00;59.50;;;;;;5028629;28;20291;-69
2022/06/10 00:28:26;;;;;;;;;;;22.00;59.40;;;;;;5026286;28;19959;-69
2022/06/10 00:30:52;;;;;;;;;;;22.00;59.40;;;;;;5041848;28;19920;-68
2022/06/10 00:33:17;;;;;;;;;;;22.00;59.40;;;;;;5041666;28;19928;-69
2022/06/10 00:35:43;;;;;;;;;;;22.00;59.40;;;;;;5034053;28;19913;-68
2022/06/10 00:38:08;;;;;;;;;;;22.00;59.40;;;;;;5026786;28;20414;-69
2022/06/10 00:40:35;;;;;;;;;;;22.00;59.40;;;;;;5026224;28;19913;-69
2022/06/10 00:43:00;;;;;;;;;;;22.00;59.40;;;;;;5024945;28;19983;-69
2022/06/10 00:45:45;;;;;;;;;;;21.90;59.40;;;;;;5026175;28;19921;-70
2022/06/10 00:48:11;;;;;;;;;;;22.00;59.50;;;;;;5030092;28;19913;-69
2022/06/10 00:50:36;;;;;;;;;;;22.00;59.40;;;;;;5023052;28;19912;-69
2022/06/10 00:53:02;;;;;;;;;;;22.00;59.40;;;;;;5032029;28;19917;-69
2022/06/10 00:55:30;;;;;;;;;;;21.90;59.40;;;;;;5022953;28;20043;-69
2022/06/10 00:58:04;;;;;;;;;;;21.90;59.40;;;;;;5030132;28;20460;-69
2022/06/10 01:00:29;;;;;;;;;;;21.90;59.40;;;;;;5020651;28;19920;-69
2022/06/10 01:02:55;;;;;;;;;;;22.00;59.40;;;;;;5050729;28;19912;-68
2022/06/10 01:05:23;;;;;;;;;;;22.00;59.40;;;;;;5050250;28;19913;-70
2022/06/10 01:07:49;;;;;;;;;;;22.00;59.40;;;;;;5051136;28;19916;-69
2022/06/10 01:10:15;;;;;;;;;;;21.90;59.40;;;;;;5050482;28;20302;-70
2022/06/10 01:12:47;;;;;;;;;;;22.00;59.40;;;;;;5049434;28;19921;-69
2022/06/10 01:15:17;;;;;;;;;;;21.90;59.20;;;;;;5026945;28;21181;-69
2022/06/10 01:17:51;;;;;;;;;;;22.00;59.30;;;;;;5029804;28;20346;-69
2022/06/10 01:20:20;;;;;;;;;;;21.90;59.30;;;;;;5015702;28;19925;-69
2022/06/10 01:22:51;;;;;;;;;;;21.90;59.20;;;;;;5031000;28;20003;-69
2022/06/10 01:25:21;;;;;;;;;;;22.00;59.30;;;;;;5045444;28;19980;-69
2022/06/10 01:28:06;;;;;;;;;;;21.90;59.20;;;;;;5011564;28;19921;-68
2022/06/10 01:30:50;;;;;;;;;;;21.90;59.20;;;;;;5048804;28;19913;-69
2022/06/10 01:33:25;;;;;;;;;;;21.90;59.20;;;;;;5048766;28;20012;-68
2022/06/10 01:35:57;;;;;;;;;;;21.90;59.20;;;;;;5024124;28;20268;-68
2022/06/10 01:38:24;;;;;;;;;;;21.90;59.20;;;;;;5031365;28;19927;-68
2022/06/10 01:41:08;;;;;;;;;;;21.90;59.30;;;;;;5033955;28;19919;-68
2022/06/10 01:43:52;;;;;;;;;;;21.90;59.90;;;;;;5051585;28;19962;-68
2022/06/10 01:46:25;;;;;;;;;;;21.90;59.30;;;;;;5021570;28;20358;-69
2022/06/10 01:48:51;;;;;;;;;;;21.90;59.20;;;;;;5012459;28;19913;-69
2022/06/10 01:51:19;;;;;;;;;;;21.90;59.20;;;;;;5019103;28;19952;-69
2022/06/10 01:53:47;;;;;;;;;;;21.90;59.20;;;;;;5030710;28;19917;-69
2022/06/10 01:56:16;;;;;;;;;;;21.90;59.20;;;;;;5023288;28;19925;-69
2022/06/10 01:58:43;;;;;;;;;;;21.90;59.20;;;;;;5029019;28;19960;-69
2022/06/10 02:01:14;;;;;;;;;;;21.80;59.20;;;;;;5010983;28;19913;-69
2022/06/10 02:03:41;;;;;;;;;;;21.90;59.20;;;;;;5011225;28;19913;-68
2022/06/10 02:06:08;;;;;;;;;;;21.90;59.20;;;;;;5015492;28;20580;-69
2022/06/10 02:08:34;;;;;;;;;;;21.80;59.20;;;;;;5020974;28;19920;-69
2022/06/10 02:11:12;;;;;;;;;;;21.80;59.20;;;;;;5027102;28;19965;-69
2022/06/10 02:13:40;;;;;;;;;;;21.80;59.20;;;;;;5010342;28;19956;-70
2022/06/10 02:16:07;;;;;;;;;;;21.90;59.20;;;;;;5011242;28;19913;-69
2022/06/10 02:18:34;;;;;;;;;;;21.80;59.10;;;;;;5011098;28;19968;-68
2022/06/10 02:21:01;;;;;;;;;;;21.80;59.10;;;;;;5012443;28;19969;-69
2022/06/10 02:23:28;;;;;;;;;;;21.80;59.10;;;;;;5048465;28;20023;-68
2022/06/10 02:25:57;;;;;;;;;;;21.80;59.20;;;;;;5026599;28;20574;-69
2022/06/10 02:28:25;;;;;;;;;;;21.80;59.20;;;;;;5047537;28;20023;-69
2022/06/10 02:31:00;;;;;;;;;;;21.80;59.10;;;;;;5046744;28;19920;-68
2022/06/10 02:33:26;;;;;;;;;;;21.80;59.10;;;;;;5015145;28;19940;-69
2022/06/10 02:35:54;;;;;;;;;;;21.80;59.10;;;;;;5028170;28;20395;-68
2022/06/10 02:38:39;;;;;;;;;;;21.80;59.20;;;;;;5065450;28;19920;-69
2022/06/10 02:41:08;;;;;;;;;;;21.80;59.20;;;;;;5047303;28;20406;-68
2022/06/10 02:43:41;;;;;;;;;;;21.80;59.10;;;;;;5024999;28;19979;-68
2022/06/10 02:46:09;;;;;;;;;;;21.80;59.20;;;;;;5010296;28;20004;-69
2022/06/10 02:48:40;;;;;;;;;;;21.80;59.10;;;;;;5048821;28;19970;-69
2022/06/10 02:51:06;;;;;;;;;;;21.80;59.10;;;;;;5067241;28;19912;-69
2022/06/10 02:53:31;;;;;;;;;;;21.80;58.90;;;;;;5048863;28;19916;-68
2022/06/10 02:55:57;;;;;;;;;;;21.80;59.30;;;;;;5047718;28;19912;-69
2022/06/10 03:01:25;;;;;;;;;;;21.80;59.30;;;;;;5066070;28;19919;-69
2022/06/10 03:03:57;;;;;;;;;;;21.70;59.20;;;;;;5047741;28;20004;-69
2022/06/10 03:06:35;;;;;;;;;;;21.80;59.20;;;;;;5046672;28;20399;-69
2022/06/10 03:09:02;;;;;;;;;;;21.80;59.20;;;;;;5015212;28;20375;-70
2022/06/10 03:11:27;;;;;;;;;;;21.70;59.10;;;;;;5006460;28;19914;-67
2022/06/10 03:14:09;;;;;;;;;;;21.70;59.10;;;;;;5049056;28;19920;-69
2022/06/10 03:16:44;;;;;;;;;;;21.70;59.10;;;;;;5031396;28;20447;-69
2022/06/10 03:19:13;;;;;;;;;;;21.70;59.10;;;;;;5007909;28;20000;-69
2022/06/10 03:21:41;;;;;;;;;;;21.80;59.10;;;;;;5022335;28;19920;-69
2022/06/10 03:24:13;;;;;;;;;;;21.70;59.00;;;;;;5065020;28;19913;-67
2022/06/10 03:26:42;;;;;;;;;;;21.70;59.10;;;;;;5067078;28;19913;-69
2022/06/10 03:29:08;;;;;;;;;;;21.70;59.00;;;;;;5047289;28;19952;-68
2022/06/10 03:31:35;;;;;;;;;;;21.70;59.00;;;;;;5041421;28;20414;-70
2022/06/10 03:34:02;;;;;;;;;;;21.70;59.00;;;;;;5033497;28;20011;-68
2022/06/10 03:36:27;;;;;;;;;;;21.70;58.90;;;;;;5038319;28;19920;-69
2022/06/10 03:38:53;;;;;;;;;;;21.70;58.90;;;;;;5029015;28;19919;-68
2022/06/10 03:41:38;;;;;;;;;;;21.70;58.90;;;;;;5028409;28;20382;-69
2022/06/10 03:44:06;;;;;;;;;;;21.70;58.90;;;;;;5025534;28;20030;-69
2022/06/10 03:46:32;;;;;;;;;;;21.70;59.60;;;;;;5049444;28;20051;-69
2022/06/10 03:48:58;;;;;;;;;;;21.70;58.90;;;;;;5015438;28;20003;-69
2022/06/10 03:51:23;;;;;;;;;;;21.70;58.90;;;;;;5028491;28;19913;-70
2022/06/10 03:53:49;;;;;;;;;;;21.70;58.70;;;;;;5035699;28;20356;-69
2022/06/10 03:56:19;;;;;;;;;;;21.70;59.10;;;;;;5047668;28;19952;-68
2022/06/10 03:58:45;;;;;;;;;;;21.60;59.60;;;;;;5017824;28;19920;-68
2022/06/10 04:01:10;;;;;;;;;;;21.50;60.70;;;;;;5026324;28;19913;-69
2022/06/10 04:03:35;;;;;;;;;;;21.40;60.80;;;;;;5017626;28;19963;-69
2022/06/10 04:06:01;;;;;;;;;;;21.40;60.50;;;;;;5043969;28;19923;-67
2022/06/10 04:08:26;;;;;;;;;;;21.30;60.30;;;;;;5046684;28;20287;-69
2022/06/10 04:10:52;;;;;;;;;;;21.30;60.10;;;;;;5046307;28;19913;-68
2022/06/10 04:13:20;;;;;;;;;;;21.30;59.70;;;;;;5046407;28;20044;-69
2022/06/10 04:15:45;;;;;;;;;;;21.30;59.50;;;;;;5046727;28;20316;-69
2022/06/10 04:18:11;;;;;;;;;;;21.30;59.60;;;;;;5042927;28;19956;-71
2022/06/10 04:20:37;;;;;;;;;;;21.30;59.50;;;;;;5008209;28;20008;-69
2022/06/10 04:23:02;;;;;;;;;;;21.30;59.40;;;;;;5024000;28;19917;-69
2022/06/10 04:25:28;;;;;;;;;;;21.40;59.50;;;;;;5035848;28;20008;-69
2022/06/10 04:27:53;;;;;;;;;;;21.40;59.50;;;;;;4997381;28;19921;-68
2022/06/10 04:30:22;;;;;;;;;;;21.40;59.50;;;;;;5043132;28;19935;-68
2022/06/10 04:32:47;;;;;;;;;;;21.40;59.50;;;;;;5043063;28;20565;-70
2022/06/10 04:35:12;;;;;;;;;;;21.40;59.50;;;;;;5025214;28;19917;-69
2022/06/10 04:37:38;;;;;;;;;;;21.40;59.50;;;;;;5006124;28;20298;-68
2022/06/10 04:40:04;;;;;;;;;;;21.40;59.50;;;;;;5039674;28;19917;-69
2022/06/10 04:42:29;;;;;;;;;;;21.40;59.40;;;;;;5043102;28;20073;-67
2022/06/10 04:44:57;;;;;;;;;;;21.40;59.40;;;;;;5043522;28;19940;-67
2022/06/10 04:47:22;;;;;;;;;;;21.40;59.00;;;;;;5043412;28;20436;-68
2022/06/10 04:49:48;;;;;;;;;;;21.40;58.70;;;;;;5030542;28;19925;-69
2022/06/10 04:52:13;;;;;;;;;;;21.30;58.50;;;;;;5023249;28;20456;-67
2022/06/10 04:54:39;;;;;;;;;;;21.30;58.40;;;;;;5034318;28;19944;-67
2022/06/10 04:57:05;;;;;;;;;;;21.30;58.30;;;;;;5043517;28;19920;-71
2022/06/10 04:59:30;;;;;;;;;;;21.30;58.20;;;;;;5034069;28;20436;-71
2022/06/10 05:01:55;;;;;;;;;;;21.30;58.20;;;;;;5023423;28;20438;-72
2022/06/10 05:04:22;;;;;;;;;;;21.40;58.50;;;;;;5030166;28;19913;-71
2022/06/10 05:06:48;;;;;;;;;;;21.40;58.80;;;;;;5042620;28;20425;-70
2022/06/10 05:09:13;;;;;;;;;;;21.50;59.20;;;;;;5037635;28;19943;-67
2022/06/10 05:11:39;;;;;;;;;;;21.50;58.90;;;;;;5023140;28;20442;-69
2022/06/10 05:14:04;;;;;;;;;;;21.50;58.80;;;;;;5026448;28;19919;-70
2022/06/10 05:16:30;;;;;;;;;;;21.50;58.90;;;;;;5041855;28;19920;-69
2022/06/10 05:18:55;;;;;;;;;;;21.60;58.30;;;;;;5041302;28;19917;-71
2022/06/10 05:21:21;;;;;;;;;;;21.40;58.50;;;;;;5021953;28;20739;-71
2022/06/10 05:23:47;;;;;;;;;;;21.20;59.00;;;;;;5004826;28;19913;-69
2022/06/10 05:26:13;;;;;;;;;;;21.20;58.80;;;;;;5042662;28;19919;-69
2022/06/10 05:28:38;;;;;;;;;;;21.30;58.70;;;;;;5043355;28;19952;-68
2022/06/10 05:31:03;;;;;;;;;;;21.30;58.60;;;;;;5025987;28;19980;-70
2022/06/10 05:34:44;;;;;;;;;;;21.30;58.70;;;;;;5028790;28;20143;-70
2022/06/10 05:36:14;;;;;;;;;;;21.30;58.70;;;;;;5062790;28;20306;-70
2022/06/10 05:38:40;;;;;;;;;;;21.20;58.40;;;;;;5066510;28;19932;-69
2022/06/10 05:42:04;;;;;;;;;;;21.20;59.20;;;;;;5049510;28;20302;-70
2022/06/10 05:43:51;;;;;;;;;;;21.20;61.20;;;;;;5047020;28;20000;-70
2022/06/10 05:46:16;;;;;;;;;;;21.20;60.60;;;;;;5064826;28;19919;-70
2022/06/10 05:48:42;;;;;;;;;;;21.20;60.20;;;;;;5068762;28;19912;-70
2022/06/10 05:51:08;;;;;;;;;;;21.10;59.90;;;;;;5053327;28;20334;-69
2022/06/10 05:53:33;;;;;;;;;;;21.10;59.70;;;;;;5049414;28;19925;-68
2022/06/10 05:55:59;;;;;;;;;;;21.00;59.50;;;;;;5050586;28;20375;-70
2022/06/10 05:58:24;;;;;;;;;;;21.00;59.50;;;;;;5047608;28;20080;-70
2022/06/10 06:00:49;;;;;;;;;;;21.00;59.50;;;;;;5060702;28;19921;-69
2022/06/10 06:03:15;;;;;;;;;;;21.00;59.40;;;;;;5070242;28;19913;-69
2022/06/10 06:05:40;;;;;;;;;;;21.00;59.40;;;;;;5056032;28;20405;-70
2022/06/10 06:08:06;;;;;;;;;;;21.00;59.40;;;;;;5044925;28;19920;-69
2022/06/10 06:10:31;;;;;;;;;;;20.90;59.20;;;;;;5053584;28;20000;-70
2022/06/10 06:12:57;;;;;;;;;;;20.90;59.30;;;;;;5065629;28;19923;-68
2022/06/10 06:15:22;;;;;;;;;;;20.80;59.40;;;;;;5059803;28;20319;-69
2022/06/10 06:17:49;;;;;;;;;;;20.90;59.40;;;;;;5044554;28;20010;-69
2022/06/10 06:20:14;;;;;;;;;;;20.90;59.40;;;;;;5048286;28;20649;-70
2022/06/10 06:22:40;;;;;;;;;;;20.90;59.40;;;;;;5065075;28;20049;-69
2022/06/10 06:25:05;;;;;;;;;;;20.90;59.40;;;;;;5063615;28;19923;-68
2022/06/10 06:27:31;;;;;;;;;;;20.90;59.50;;;;;;5045657;28;19917;-69
2022/06/10 06:29:58;;;;;;;;;;;20.90;59.60;;;;;;5046153;28;20383;-68
2022/06/10 06:32:24;;;;;;;;;;;20.90;60.20;;;;;;5024583;28;19917;-69
2022/06/10 06:34:49;;;;;;;;;;;20.90;59.50;;;;;;5025077;28;19960;-68
2022/06/10 06:37:15;;;;;;;;;;;21.00;59.40;;;;;;5061732;28;19927;-68
2022/06/10 06:39:40;;;;;;;;;;;20.90;59.40;;;;;;5065061;28;20286;-69
2022/06/10 06:42:06;;;;;;;;;;;20.90;59.60;;;;;;5047189;28;20003;-70
2022/06/10 06:44:31;;;;;;;;;;;20.90;59.60;;;;;;5045185;28;19917;-69
2022/06/10 06:46:57;;;;;;;;;;;20.90;59.50;;;;;;5058934;28;19939;-68
2022/06/10 06:49:23;;;;;;;;;;;20.80;59.50;;;;;;5064337;28;20414;-70
2022/06/10 06:51:48;;;;;;;;;;;20.90;59.60;;;;;;5051764;28;19975;-69
2022/06/10 06:54:14;;;;;;;;;;;20.90;60.30;;;;;;5044901;28;20541;-69
2022/06/10 06:56:39;;;;;;;;;;;20.90;59.70;;;;;;5055312;28;20562;-69
2022/06/10 06:59:05;;;;;;;;;;;20.90;59.70;;;;;;5064820;28;19920;-69
2022/06/10 07:01:30;;;;;;;;;;;20.90;59.70;;;;;;5054571;28;19984;-68
2022/06/10 07:03:56;;;;;;;;;;;20.90;59.50;;;;;;5045042;28;19917;-70
2022/06/10 07:06:22;;;;;;;;;;;20.90;59.40;;;;;;5051226;28;19919;-69
2022/06/10 07:08:47;;;;;;;;;;;20.90;59.40;;;;;;5064357;28;19913;-70
2022/06/10 07:11:12;;;;;;;;;;;20.80;59.50;;;;;;5059303;28;19917;-68
2022/06/10 07:13:38;;;;;;;;;;;20.80;59.70;;;;;;5044199;28;20279;-69
2022/06/10 07:16:04;;;;;;;;;;;20.70;59.60;;;;;;5048124;28;19962;-68
2022/06/10 07:18:30;;;;;;;;;;;20.70;59.70;;;;;;5065151;28;19992;-71
2022/06/10 07:20:55;;;;;;;;;;;20.70;59.80;;;;;;5062138;28;19919;-71
2022/06/10 07:23:21;;;;;;;;;;;20.70;59.70;;;;;;5044284;28;19913;-70
2022/06/10 07:25:47;;;;;;;;;;;20.60;59.70;;;;;;5044669;28;19913;-70
2022/06/10 07:28:13;;;;;;;;;;;20.60;59.70;;;;;;5044344;28;19913;-69
2022/06/10 07:30:38;;;;;;;;;;;20.60;59.90;;;;;;5044026;28;20298;-69
2022/06/10 07:33:04;;;;;;;;;;;20.60;59.90;;;;;;5026231;28;19921;-69
2022/06/10 07:35:30;;;;;;;;;;;20.70;59.80;;;;;;5007335;28;20020;-70
2022/06/10 07:37:55;;;;;;;;;;;20.70;59.60;;;;;;5051587;28;19920;-69
2022/06/10 07:43:06;;;;;;;;;;;20.80;59.70;;;;;;5047177;28;19955;-69
2022/06/10 07:45:32;;;;;;;;;;;20.70;60.00;;;;;;5043699;28;19960;-69
2022/06/10 07:47:57;;;;;;;;;;;20.70;60.10;;;;;;5057536;28;19962;-70
2022/06/10 07:50:23;;;;;;;;;;;20.70;60.20;;;;;;5055711;28;20277;-69
2022/06/10 07:52:49;;;;;;;;;;;20.70;60.30;;;;;;5034388;28;19917;-69
2022/06/10 07:55:15;;;;;;;;;;;20.70;59.20;;;;;;5023707;28;20044;-69
2022/06/10 07:57:40;;;;;;;;;;;20.80;59.60;;;;;;5027807;28;19917;-69
2022/06/10 08:00:06;;;;;;;;;;;20.70;60.10;;;;;;5041531;28;19925;-68
2022/06/10 08:02:32;;;;;;;;;;;20.70;59.90;;;;;;5027900;28;20031;-70
2022/06/10 08:04:57;;;;;;;;;;;20.70;60.00;;;;;;5056135;28;19912;-69
2022/06/10 08:07:22;;;;;;;;;;;20.70;59.80;;;;;;5023759;28;19932;-70
2022/06/10 08:09:48;;;;;;;;;;;20.80;59.60;;;;;;5021741;28;20372;-68
2022/06/10 08:12:13;;;;;;;;;;;20.80;59.60;;;;;;5029040;28;19921;-68
2022/06/10 08:14:39;;;;;;;;;;;20.90;59.30;;;;;;5027746;28;19917;-68
2022/06/10 08:17:07;;;;;;;;;;;20.90;59.50;;;;;;5040630;28;19952;-70
2022/06/10 08:19:32;;;;;;;;;;;20.90;59.30;;;;;;5024492;28;19933;-70
2022/06/10 08:24:42;;;;;;;;;;;20.90;59.40;;;;;;5034844;28;20004;-69
2022/06/10 08:27:07;;;;;;;;;;;20.90;59.60;;;;;;5060907;28;19912;-68
2022/06/10 08:29:33;;;;;;;;;;;21.00;59.60;;;;;;5026603;28;19917;-70
2022/06/10 08:31:58;;;;;;;;;;;21.00;59.30;;;;;;5043608;28;20322;-71
2022/06/10 08:34:24;;;;;;;;;;;20.90;59.20;;;;;;5044496;28;19913;-69
2022/06/10 08:36:49;;;;;;;;;;;21.00;59.30;;;;;;5026181;28;19921;-69
2022/06/10 08:39:15;;;;;;;;;;;21.00;59.40;;;;;;5026638;28;19913;-69
2022/06/10 08:41:46;;;;;;;;;;;21.00;59.90;;;;;;5023021;28;19987;-69
2022/06/10 08:44:26;;;;;;;;;;;20.90;59.70;;;;;;5040596;28;19912;-70
2022/06/10 08:47:11;;;;;;;;;;;20.90;59.60;;;;;;5045008;28;20834;-70
2022/06/10 08:49:55;;;;;;;;;;;20.90;59.40;;;;;;5027427;28;20279;-70
2022/06/10 08:52:23;;;;;;;;;;;20.80;59.40;;;;;;5029153;28;19988;-71
2022/06/10 08:54:54;;;;;;;;;;;20.80;59.60;;;;;;5063991;28;20298;-70
2022/06/10 08:57:30;;;;;;;;;;;20.70;59.20;;;;;;5051145;28;20099;-70
2022/06/10 08:59:56;;;;;;;;;;;20.60;58.70;;;;;;5024064;28;20000;-70
2022/06/10 09:02:27;;;;;;;;;;;20.40;59.60;;;;;;4991102;28;20318;-70
2022/06/10 09:04:57;;;;;;;;;;;20.50;59.70;;;;;;5061515;28;19944;-69
2022/06/10 09:07:30;;;;;;;;;;;20.40;59.30;;;;;;5051095;28;19913;-69
2022/06/10 09:09:57;;;;;;;;;;;20.50;59.60;;;;;;5047046;28;19917;-70
2022/06/10 09:12:25;;;;;;;;;;;20.60;59.40;;;;;;5030463;28;20000;-69
2022/06/10 09:14:51;;;;;;;;;;;20.60;59.30;;;;;;5046191;28;19913;-68
2022/06/10 09:17:19;;;;;;;;;;;20.70;59.20;;;;;;5064997;28;19987;-71
2022/06/10 09:19:53;;;;;;;;;;;20.70;58.90;;;;;;5006336;28;19913;-70
2022/06/10 09:22:38;;;;;;;;;;;20.80;59.20;;;;;;5035083;28;20432;-69
2022/06/10 09:25:06;;;;;;;;;;;20.80;59.00;;;;;;5035600;28;19921;-70
2022/06/10 09:27:31;;;;;;;;;;;20.90;59.00;;;;;;5014822;28;19917;-70
2022/06/10 09:29:57;;;;;;;;;;;20.90;58.90;;;;;;5030090;28;20004;-71
2022/06/10 09:32:29;;;;;;;;;;;21.00;58.90;;;;;;5010674;28;19968;-71
2022/06/10 09:35:13;;;;;;;;;;;21.00;58.80;;;;;;5029402;28;19940;-71
2022/06/10 09:38:01;;;;;;;;;;;21.00;58.90;;;;;;5032093;28;20460;-71
2022/06/10 09:40:38;;;;;;;;;;;21.00;58.80;;;;;;5001918;28;19921;-68
2022/06/10 09:43:09;;;;;;;;;;;21.00;58.80;;;;;;5016347;28;19912;-70
2022/06/10 09:45:39;;;;;;;;;;;21.00;59.00;;;;;;5045592;28;19923;-70
2022/06/10 09:48:15;;;;;;;;;;;21.00;58.40;;;;;;5031587;28;19919;-70
2022/06/10 09:50:43;;;;;;;;;;;20.90;58.80;;;;;;5020921;28;20334;-69
2022/06/10 09:53:28;;;;;;;;;;;21.00;59.20;;;;;;4992440;28;19932;-69
2022/06/10 09:56:12;;;;;;;;;;;21.00;58.00;;;;;;5012169;28;19913;-68
2022/06/10 09:59:09;;;;;;;;;;;20.90;58.80;;;;;;5006417;28;19917;-71
2022/06/10 10:01:36;;;;;;;;;;;20.90;59.10;;;;;;5005595;28;20332;-70
2022/06/10 10:04:09;;;;;;;;;;;21.00;59.40;;;;;;5045471;28;20003;-69
2022/06/10 10:06:38;;;;;;;;;;;20.90;58.10;;;;;;5028155;28;19913;-68
2022/06/10 10:09:13;;;;;;;;;;;21.00;58.80;;;;;;5031494;28;19913;-72
2022/06/10 10:11:59;;;;;;;;;;;21.00;58.60;;;;;;5027071;28;19916;-68
2022/06/10 10:14:33;;;;;;;;;;;21.10;58.00;;;;;;5007792;28;19928;-73
2022/06/10 10:17:14;;;;;;;;;;;21.10;58.50;;;;;;5004779;28;19913;-71
2022/06/10 10:19:45;;;;;;;;;;;21.20;58.40;;;;;;5029792;28;20555;-71
2022/06/10 10:22:14;;;;;;;;;;;21.20;58.50;;;;;;5047010;28;19913;-68
2022/06/10 10:24:40;;;;;;;;;;;21.20;58.50;;;;;;5038728;28;20016;-68
2022/06/10 10:27:34;;;;;;;;;;;21.20;57.00;;;;;;5008506;28;19956;-71
2022/06/10 10:30:05;;;;;;;;;;;21.10;58.70;;;;;;5032261;28;20308;-71
2022/06/10 10:32:32;;;;;;;;;;;21.20;59.10;;;;;;5055747;28;20065;-71
2022/06/10 10:35:03;;;;;;;;;;;21.20;58.90;;;;;;5052953;28;20444;-70
2022/06/10 10:37:33;;;;;;;;;;;21.20;58.60;;;;;;5066453;28;20572;-73
2022/06/10 10:40:15;;;;;;;;;;;21.30;58.60;;;;;;5058249;28;19924;-71
2022/06/10 10:42:41;;;;;;;;;;;21.30;58.00;;;;;;5047573;28;19917;-71
2022/06/10 10:45:15;;;;;;;;;;;21.20;58.30;;;;;;5053382;28;20534;-70
2022/06/10 10:47:45;;;;;;;;;;;21.20;58.70;;;;;;5066179;28;19961;-71
2022/06/10 10:50:19;;;;;;;;;;;21.30;58.70;;;;;;5056945;28;19913;-70
2022/06/10 10:52:45;;;;;;;;;;;21.20;58.30;;;;;;5044074;28;20027;-71
2022/06/10 10:55:11;;;;;;;;;;;21.30;58.60;;;;;;5052480;28;19924;-71
2022/06/10 10:57:37;;;;;;;;;;;21.30;58.50;;;;;;5065862;28;19921;-71
2022/06/10 11:00:11;;;;;;;;;;;21.30;58.20;;;;;;5059272;28;19920;-70
2022/06/10 11:02:37;;;;;;;;;;;21.30;58.70;;;;;;5045080;28;19924;-70
2022/06/10 11:05:21;;;;;;;;;;;21.40;58.50;;;;;;5049545;28;19978;-71
2022/06/10 11:07:47;;;;;;;;;;;21.40;58.50;;;;;;5054993;28;19936;-70
2022/06/10 11:10:20;;;;;;;;;;;21.40;58.70;;;;;;5059301;28;20380;-70
2022/06/10 11:12:45;;;;;;;;;;;21.40;58.40;;;;;;5044886;28;20462;-71
2022/06/10 11:15:18;;;;;;;;;;;21.40;58.40;;;;;;5049011;28;19913;-69
2022/06/10 11:17:44;;;;;;;;;;;21.40;58.50;;;;;;5053931;28;20562;-70
2022/06/10 11:20:28;;;;;;;;;;;21.40;58.20;;;;;;5043618;28;19920;-70
2022/06/10 11:23:12;;;;;;;;;;;21.50;58.20;;;;;;5044164;28;20723;-71
2022/06/10 11:25:37;;;;;;;;;;;21.40;56.70;;;;;;5051586;28;20387;-70
2022/06/10 11:28:04;;;;;;;;;;;21.40;58.10;;;;;;5064669;28;19944;-70
2022/06/10 11:30:38;;;;;;;;;;;21.40;58.00;;;;;;5057128;28;19913;-71
2022/06/10 11:33:06;;;;;;;;;;;21.40;58.10;;;;;;5043439;28;19917;-71
2022/06/10 11:35:38;;;;;;;;;;;21.40;58.30;;;;;;5047766;28;19962;-71
2022/06/10 11:38:03;;;;;;;;;;;21.40;58.10;;;;;;5064715;28;20425;-71
2022/06/10 11:40:35;;;;;;;;;;;21.40;58.40;;;;;;5060858;28;19920;-72
2022/06/10 11:43:25;;;;;;;;;;;21.40;58.50;;;;;;5043009;28;19963;-71
2022/06/10 11:45:59;;;;;;;;;;;21.40;58.30;;;;;;5041867;28;19920;-71
2022/06/10 11:48:28;;;;;;;;;;;21.50;59.50;;;;;;5057334;28;19994;-72
2022/06/10 11:50:57;;;;;;;;;;;21.50;59.80;;;;;;5033946;28;19926;-71
2022/06/10 11:53:38;;;;;;;;;;;21.50;59.80;;;;;;5005201;28;19925;-71
2022/06/10 12:01:33;;;;;;;;;;;21.50;58.50;;;;;;5028129;28;19935;-70
2022/06/10 12:04:00;;;;;;;;;;;21.50;58.60;;;;;;5056064;28;19913;-71
2022/06/10 12:06:31;;;;;;;;;;;21.50;58.50;;;;;;5054489;28;20430;-70
2022/06/10 12:09:00;;;;;;;;;;;21.50;58.50;;;;;;5025834;28;20329;-70
2022/06/10 12:11:39;;;;;;;;;;;21.50;55.90;;;;;;5031603;28;19913;-71
2022/06/10 12:14:16;;;;;;;;;;;21.50;58.20;;;;;;5062758;28;19944;-71
2022/06/10 12:16:44;;;;;;;;;;;21.50;58.20;;;;;;5054834;28;20416;-70
2022/06/10 12:19:14;;;;;;;;;;;21.50;56.60;;;;;;5025556;28;19932;-72
2022/06/10 12:21:40;;;;;;;;;;;21.60;57.90;;;;;;5049179;28;20412;-70
2022/06/10 12:24:10;;;;;;;;;;;21.60;57.70;;;;;;5045686;28;19909;-70
2022/06/10 12:26:45;;;;;;;;;;;21.60;57.50;;;;;;5055613;28;19912;-71
2022/06/10 12:29:32;;;;;;;;;;;21.60;57.40;;;;;;5043066;28;19913;-70
2022/06/10 12:32:01;;;;;;;;;;;21.60;57.10;;;;;;5051314;28;20430;-72
2022/06/10 12:34:27;;;;;;;;;;;21.60;57.80;;;;;;5063412;28;19920;-70
2022/06/10 12:36:54;;;;;;;;;;;21.70;58.10;;;;;;5038072;28;19921;-70
2022/06/10 12:39:20;;;;;;;;;;;21.70;57.80;;;;;;5041837;28;19916;-70
2022/06/10 12:41:47;;;;;;;;;;;21.70;57.90;;;;;;5052398;28;19909;-69
2022/06/10 12:44:14;;;;;;;;;;;21.60;57.20;;;;;;5030161;28;19913;-70
2022/06/10 12:46:42;;;;;;;;;;;21.60;57.60;;;;;;5041767;28;19913;-70
2022/06/10 12:49:34;;;;;;;;;;;21.60;57.70;;;;;;5009404;28;19967;-71
2022/06/10 12:52:10;;;;;;;;;;;21.70;57.10;;;;;;5029576;28;19935;-70
2022/06/10 12:54:54;;;;;;;;;;;21.60;54.80;;;;;;5063049;28;19912;-70
2022/06/10 12:57:35;;;;;;;;;;;21.60;56.20;;;;;;5042007;28;20334;-71
2022/06/10 13:00:19;;;;;;;;;;;21.60;57.40;;;;;;5027586;28;19913;-70
2022/06/10 13:02:51;;;;;;;;;;;21.60;57.60;;;;;;5011775;28;20131;-70
2022/06/10 13:05:17;;;;;;;;;;;21.70;57.70;;;;;;5045250;28;21415;-70
2022/06/10 13:07:43;;;;;;;;;;;21.70;57.50;;;;;;5046648;28;20381;-70
2022/06/10 13:10:27;;;;;;;;;;;21.70;57.90;;;;;;5045750;28;20007;-71
2022/06/10 13:12:52;;;;;;;;;;;21.70;58.00;;;;;;5066308;28;19946;-71
2022/06/10 13:15:24;;;;;;;;;;;21.70;58.00;;;;;;5067470;28;20271;-71
2022/06/10 13:17:54;;;;;;;;;;;21.70;55.70;;;;;;5052325;28;19921;-70
2022/06/10 13:20:20;;;;;;;;;;;21.70;55.70;;;;;;5009224;28;19913;-70
2022/06/10 13:23:05;;;;;;;;;;;21.70;57.50;;;;;;5035081;28;19912;-70
2022/06/10 13:25:31;;;;;;;;;;;21.70;57.10;;;;;;5051611;28;20377;-71
2022/06/10 13:27:56;;;;;;;;;;;21.70;57.20;;;;;;5057586;28;20350;-68
2022/06/10 13:30:26;;;;;;;;;;;21.80;57.20;;;;;;5028898;28;20305;-71
2022/06/10 13:32:58;;;;;;;;;;;21.70;57.10;;;;;;5045993;28;20255;-68
2022/06/10 13:35:28;;;;;;;;;;;21.80;56.90;;;;;;5046425;28;19955;-69
2022/06/10 13:37:55;;;;;;;;;;;21.70;57.30;;;;;;5011505;28;20163;-72
2022/06/10 13:40:22;;;;;;;;;;;21.80;57.40;;;;;;4992256;28;20106;-70
2022/06/10 13:42:50;;;;;;;;;;;21.80;56.90;;;;;;5016602;28;20546;-71
2022/06/10 13:45:18;;;;;;;;;;;21.80;56.90;;;;;;5032243;28;20197;-72
2022/06/10 13:48:08;;;;;;;;;;;21.80;57.30;;;;;;5004094;28;19996;-72
2022/06/10 13:51:03;;;;;;;;;;;21.80;57.70;;;;;;5022634;28;19956;-73
2022/06/10 13:53:34;;;;;;;;;;;21.80;55.70;;;;;;5013548;28;19918;-72
2022/06/10 13:56:00;;;;;;;;;;;21.80;58.40;;;;;;5008026;28;19913;-71
2022/06/10 13:58:26;;;;;;;;;;;21.90;56.60;;;;;;5027833;28;20371;-70
2022/06/10 14:00:51;;;;;;;;;;;21.80;57.40;;;;;;5045610;28;19923;-71
2022/06/10 14:03:37;;;;;;;;;;;21.80;57.30;;;;;;5045955;28;19971;-70
2022/06/10 14:06:04;;;;;;;;;;;21.80;54.80;;;;;;5027498;28;19913;-67
2022/06/10 14:08:31;;;;;;;;;;;21.70;53.80;;;;;;5007107;28;20446;-67
2022/06/10 14:10:56;;;;;;;;;;;21.70;54.80;;;;;;5024273;28;19915;-70
2022/06/10 14:13:26;;;;;;;;;;;21.80;55.20;;;;;;5030581;28;19976;-69
2022/06/10 14:15:55;;;;;;;;;;;21.80;54.30;;;;;;5018783;28;19917;-70
2022/06/10 14:18:23;;;;;;;;;;;21.80;53.50;;;;;;5024096;28;19933;-71
2022/06/10 14:20:49;;;;;;;;;;;21.80;55.70;;;;;;5026323;28;20035;-70
2022/06/10 14:23:25;;;;;;;;;;;21.90;56.70;;;;;;5027142;28;19920;-71
2022/06/10 14:26:00;;;;;;;;;;;21.90;55.40;;;;;;4981552;28;19917;-71
2022/06/10 14:28:25;;;;;;;;;;;21.90;54.70;;;;;;5013370;28;20247;-71
2022/06/10 14:30:52;;;;;;;;;;;21.80;55.00;;;;;;5047462;28;19920;-70
2022/06/10 14:33:35;;;;;;;;;;;21.80;54.70;;;;;;5058137;28;19917;-70
2022/06/10 14:36:13;;;;;;;;;;;21.90;55.50;;;;;;5007667;28;19917;-70
2022/06/10 14:38:39;;;;;;;;;;;21.80;55.70;;;;;;5030767;28;20441;-70
2022/06/10 14:41:07;;;;;;;;;;;21.90;57.10;;;;;;5027023;28;20009;-71
2022/06/10 14:43:33;;;;;;;;;;;22.00;56.10;;;;;;5040932;28;19920;-70